createdAt,value
2023-01-21T00:02:05.438Z,72.65
2023-01-21T00:04:33.950Z,72.72
2023-01-21T00:07:01.940Z,72.62
2023-01-21T00:09:30.137Z,72.66
2023-01-21T00:12:02.606Z,72.61
2023-01-21T00:14:31.146Z,72.71
2023-01-21T00:16:59.759Z,72.81
2023-01-21T00:19:29.209Z,72.90
2023-01-21T00:21:57.226Z,72.83
2023-01-21T00:24:25.423Z,72.86
2023-01-21T00:26:53.755Z,72.70
2023-01-21T00:29:22.007Z,72.69
2023-01-21T00:31:51.174Z,72.66
2023-01-21T00:34:20.479Z,72.82
2023-01-21T00:36:48.499Z,72.86
2023-01-21T00:39:16.881Z,72.79
2023-01-21T00:41:45.266Z,72.63
2023-01-21T00:44:13.236Z,72.79
2023-01-21T00:46:41.162Z,72.65
2023-01-21T00:49:09.416Z,72.66
2023-01-21T00:51:37.384Z,72.77
2023-01-21T00:54:05.537Z,72.77
2023-01-21T00:56:35.998Z,72.83
2023-01-21T00:59:04.271Z,72.92
2023-01-21T01:01:36.471Z,72.69
2023-01-21T01:04:05.521Z,72.65
2023-01-21T01:06:33.856Z,72.76
2023-01-21T01:09:03.892Z,72.69
2023-01-21T01:11:31.961Z,72.56
2023-01-21T01:14:00.157Z,72.64
2023-01-21T01:16:28.293Z,72.55
2023-01-21T01:18:56.338Z,72.65
2023-01-21T01:21:24.675Z,72.64
2023-01-21T01:23:54.202Z,72.52
2023-01-21T01:26:22.919Z,72.58
2023-01-21T01:28:51.042Z,72.50
2023-01-21T01:31:20.855Z,72.48
2023-01-21T01:33:49.138Z,72.54
2023-01-21T01:36:20.285Z,72.51
2023-01-21T01:38:48.246Z,72.61
2023-01-21T01:41:19.404Z,72.80
2023-01-21T01:43:54.114Z,72.71
2023-01-21T01:46:23.504Z,72.79
2023-01-21T01:48:55.989Z,72.78
2023-01-21T01:51:29.759Z,72.60
2023-01-21T01:53:58.451Z,72.96
2023-01-21T01:56:28.315Z,73.03
2023-01-21T01:58:56.971Z,73.28
2023-01-21T02:01:25.330Z,73.27
2023-01-21T02:03:58.855Z,73.44
2023-01-21T02:06:27.653Z,73.54
2023-01-21T02:08:57.096Z,73.47
2023-01-21T02:11:25.078Z,73.62
2023-01-21T02:13:57.441Z,73.65
2023-01-21T02:16:46.715Z,73.77
2023-01-21T02:20:11.488Z,73.74
2023-01-21T02:22:52.061Z,73.77
2023-01-21T02:25:50.135Z,73.96
2023-01-21T02:28:52.739Z,74.16
2023-01-21T02:31:35.422Z,74.25
2023-01-21T02:34:13.760Z,74.27
2023-01-21T02:36:59.537Z,74.34
2023-01-21T02:39:43.688Z,74.53
2023-01-21T02:42:18.107Z,74.49
2023-01-21T02:44:53.857Z,74.53
2023-01-21T02:47:28.283Z,74.76
2023-01-21T02:50:00.894Z,74.80
2023-01-21T02:52:29.018Z,74.89
2023-01-21T02:54:59.038Z,74.79
2023-01-21T02:57:42.460Z,74.82
2023-01-21T03:00:16.893Z,74.84
2023-01-21T03:03:26.260Z,74.92
2023-01-21T03:06:32.319Z,75.09
2023-01-21T03:09:06.851Z,75.13
2023-01-21T03:11:35.434Z,75.20
2023-01-21T03:14:31.137Z,75.12
2023-01-21T03:17:07.411Z,75.18
2023-01-21T03:19:42.757Z,75.33
2023-01-21T03:22:15.024Z,75.46
2023-01-21T03:24:46.861Z,75.37
2023-01-21T03:27:19.778Z,75.47
2023-01-21T03:29:53.805Z,75.45
2023-01-21T03:32:23.707Z,75.45
2023-01-21T03:34:54.624Z,75.45
2023-01-21T03:37:28.446Z,75.57
2023-01-21T03:40:04.992Z,75.51
2023-01-21T03:42:33.744Z,75.61
2023-01-21T03:45:02.295Z,75.53
2023-01-21T03:47:34.546Z,75.73
2023-01-21T03:50:06.731Z,75.80
2023-01-21T03:52:38.479Z,75.73
2023-01-21T03:55:08.248Z,75.87
2023-01-21T03:57:36.346Z,75.92
2023-01-21T04:00:06.660Z,76.04
2023-01-21T04:02:34.785Z,76.02
2023-01-21T04:05:03.274Z,76.00
2023-01-21T04:07:31.309Z,76.04
2023-01-21T04:09:59.261Z,76.18
2023-01-21T04:12:27.282Z,76.17
2023-01-21T04:14:55.245Z,76.28
2023-01-21T04:17:23.421Z,76.37
2023-01-21T04:19:51.446Z,76.47
2023-01-21T04:22:20.031Z,76.43
2023-01-21T04:24:48.052Z,76.43
2023-01-21T04:27:16.121Z,76.36
2023-01-21T04:29:44.106Z,76.41
2023-01-21T04:32:12.171Z,76.46
2023-01-21T04:34:40.141Z,76.45
2023-01-21T04:37:08.216Z,76.55
2023-01-21T04:39:36.198Z,76.45
2023-01-21T04:42:04.772Z,76.52
2023-01-21T04:44:32.829Z,76.61
2023-01-21T04:47:00.810Z,76.64
2023-01-21T04:49:28.987Z,76.68
2023-01-21T04:51:57.274Z,76.81
2023-01-21T04:54:25.557Z,76.86
2023-01-21T04:56:53.705Z,76.96
2023-01-21T04:59:21.839Z,76.86
2023-01-21T05:01:49.879Z,76.78
2023-01-21T05:04:19.040Z,76.90
2023-01-21T05:06:47.150Z,77.00
2023-01-21T05:09:15.106Z,76.93
2023-01-21T05:11:43.003Z,76.71
2023-01-21T05:14:10.945Z,76.88
2023-01-21T05:16:38.909Z,76.76
2023-01-21T05:19:07.149Z,76.94
2023-01-21T05:21:35.578Z,76.97
2023-01-21T05:24:03.756Z,77.01
2023-01-21T05:26:31.703Z,76.97
2023-01-21T05:28:59.600Z,76.98
2023-01-21T05:31:28.335Z,77.00
2023-01-21T05:33:57.521Z,76.93
2023-01-21T05:36:25.758Z,76.94
2023-01-21T05:38:53.732Z,77.04
2023-01-21T05:41:21.878Z,76.99
2023-01-21T05:43:49.873Z,77.07
2023-01-21T05:46:18.667Z,77.01
2023-01-21T05:48:46.629Z,77.14
2023-01-21T05:51:14.586Z,77.02
2023-01-21T05:53:42.517Z,77.04
2023-01-21T05:56:10.476Z,77.22
2023-01-21T05:58:38.420Z,77.07
2023-01-21T06:01:06.489Z,77.12
2023-01-21T06:03:35.062Z,77.15
2023-01-21T06:06:03.286Z,77.22
2023-01-21T06:08:31.428Z,77.11
2023-01-21T06:10:59.402Z,77.13
2023-01-21T06:13:27.671Z,77.15
2023-01-21T06:15:56.150Z,77.23
2023-01-21T06:18:24.901Z,77.14
2023-01-21T06:20:53.024Z,77.05
2023-01-21T06:23:21.551Z,77.12
2023-01-21T06:25:49.476Z,77.19
2023-01-21T06:28:17.405Z,77.29
2023-01-21T06:30:45.524Z,77.21
2023-01-21T06:33:13.535Z,77.27
2023-01-21T06:35:41.434Z,77.47
2023-01-21T06:38:09.326Z,77.15
2023-01-21T06:40:37.260Z,77.03
2023-01-21T06:43:05.372Z,77.16
2023-01-21T06:45:33.282Z,77.09
2023-01-21T06:48:01.416Z,77.20
2023-01-21T06:50:29.516Z,77.16
2023-01-21T06:52:57.697Z,77.34
2023-01-21T06:55:25.669Z,77.35
2023-01-21T06:57:53.611Z,77.50
2023-01-21T07:00:23.003Z,77.38
2023-01-21T07:02:54.961Z,77.34
2023-01-21T07:05:22.972Z,77.45
2023-01-21T07:07:54.847Z,77.41
2023-01-21T07:10:22.977Z,77.49
2023-01-21T07:12:51.838Z,77.53
2023-01-21T07:15:20.038Z,77.49
2023-01-21T07:17:48.112Z,77.55
2023-01-21T07:20:17.106Z,77.44
2023-01-21T07:22:45.060Z,77.47
2023-01-21T07:25:13.025Z,77.52
2023-01-21T07:27:42.035Z,77.61
2023-01-21T07:30:16.930Z,77.48
2023-01-21T07:32:45.178Z,77.47
2023-01-21T07:35:13.533Z,77.53
2023-01-21T07:37:41.524Z,77.48
2023-01-21T07:40:12.330Z,77.58
2023-01-21T07:42:40.247Z,77.53
2023-01-21T07:45:10.249Z,77.74
2023-01-21T07:47:38.716Z,77.74
2023-01-21T07:50:09.228Z,77.80
2023-01-21T07:52:37.273Z,77.85
2023-01-21T07:55:07.990Z,77.76
2023-01-21T07:57:36.200Z,77.78
2023-01-21T08:00:06.657Z,77.80
2023-01-21T08:02:42.425Z,77.86
2023-01-21T08:05:16.713Z,77.77
2023-01-21T08:07:45.176Z,77.84
2023-01-21T08:10:14.565Z,77.91
2023-01-21T08:12:44.391Z,77.93
2023-01-21T08:15:12.983Z,77.73
2023-01-21T08:17:43.085Z,77.89
2023-01-21T08:20:13.058Z,77.80
2023-01-21T08:22:41.128Z,77.86
2023-01-21T08:25:13.323Z,77.73
2023-01-21T08:27:44.187Z,77.91
2023-01-21T08:30:17.535Z,77.80
2023-01-21T08:32:45.501Z,77.72
2023-01-21T08:35:13.657Z,77.82
2023-01-21T08:37:41.643Z,77.98
2023-01-21T08:40:11.919Z,77.80
2023-01-21T08:42:39.886Z,77.95
2023-01-21T08:45:10.384Z,78.02
2023-01-21T08:47:38.278Z,77.82
2023-01-21T08:50:08.852Z,77.83
2023-01-21T08:52:36.824Z,77.76
2023-01-21T08:55:06.028Z,77.73
2023-01-21T08:57:34.016Z,77.68
2023-01-21T09:00:02.165Z,77.51
2023-01-21T09:02:30.393Z,77.80
2023-01-21T09:04:58.560Z,77.67
2023-01-21T09:07:26.523Z,77.57
2023-01-21T09:09:54.462Z,77.67
2023-01-21T09:12:22.473Z,77.47
2023-01-21T09:14:50.521Z,77.64
2023-01-21T09:17:18.491Z,77.62
2023-01-21T09:19:46.519Z,77.65
2023-01-21T09:22:15.211Z,77.32
2023-01-21T09:24:43.424Z,77.59
2023-01-21T09:27:11.711Z,77.55
2023-01-21T09:29:40.960Z,77.45
2023-01-21T09:32:09.442Z,77.62
2023-01-21T09:34:37.679Z,77.69
2023-01-21T09:37:05.642Z,77.47
2023-01-21T09:39:33.587Z,77.54
2023-01-21T09:42:01.703Z,77.93
2023-01-21T09:44:35.148Z,77.82
2023-01-21T09:47:09.483Z,77.86
2023-01-21T09:49:41.337Z,77.70
2023-01-21T09:52:22.237Z,77.73
2023-01-21T09:54:50.552Z,77.76
2023-01-21T09:57:51.849Z,77.53
2023-01-21T10:00:36.683Z,77.44
2023-01-21T10:03:16.993Z,77.60
2023-01-21T10:06:22.060Z,77.43
2023-01-21T10:09:15.402Z,77.48
2023-01-21T10:12:08.110Z,77.56
2023-01-21T10:14:54.088Z,77.41
2023-01-21T10:17:33.546Z,77.15
2023-01-21T10:20:11.799Z,77.23
2023-01-21T10:22:43.900Z,77.39
2023-01-21T10:25:22.626Z,77.53
2023-01-21T10:27:51.000Z,77.51
2023-01-21T10:30:29.937Z,77.47
2023-01-21T10:32:58.494Z,77.38
2023-01-21T10:35:39.288Z,77.42
2023-01-21T10:38:12.646Z,77.71
2023-01-21T10:40:47.099Z,77.48
2023-01-21T10:43:35.626Z,77.46
2023-01-21T10:46:14.889Z,77.47
2023-01-21T10:48:50.383Z,77.48
2023-01-21T10:51:24.725Z,77.43
2023-01-21T10:53:58.795Z,77.23
2023-01-21T10:56:39.929Z,77.15
2023-01-21T10:59:12.276Z,77.39
2023-01-21T11:01:42.897Z,77.32
2023-01-21T11:04:14.909Z,77.44
2023-01-21T11:06:43.900Z,77.48
2023-01-21T11:09:14.917Z,77.70
2023-01-21T11:11:43.418Z,77.80
2023-01-21T11:14:11.365Z,77.66
2023-01-21T11:16:44.248Z,77.58
2023-01-21T11:19:15.703Z,77.74
2023-01-21T11:21:59.336Z,77.75
2023-01-21T11:24:29.070Z,77.73
2023-01-21T11:26:58.864Z,77.53
2023-01-21T11:29:37.945Z,77.64
2023-01-21T11:32:17.971Z,77.68
2023-01-21T11:34:47.884Z,77.83
2023-01-21T11:37:24.007Z,77.88
2023-01-21T11:39:55.614Z,77.85
2023-01-21T11:42:24.593Z,78.02
2023-01-21T11:44:54.681Z,77.87
2023-01-21T11:47:37.740Z,77.75
2023-01-21T11:50:15.666Z,78.05
2023-01-21T11:52:43.919Z,77.92
2023-01-21T11:55:29.180Z,77.98
2023-01-21T11:57:57.395Z,78.03
2023-01-21T12:00:27.781Z,77.91
2023-01-21T12:02:59.869Z,78.17
2023-01-21T12:05:32.063Z,78.33
2023-01-21T12:08:02.153Z,78.21
2023-01-21T12:10:34.521Z,78.13
2023-01-21T12:13:19.439Z,78.07
2023-01-21T12:16:05.494Z,78.31
2023-01-21T12:18:47.595Z,78.49
2023-01-21T12:21:21.989Z,78.37
2023-01-21T12:24:05.858Z,78.40
2023-01-21T12:26:38.778Z,78.27
2023-01-21T12:29:32.113Z,78.34
2023-01-21T12:32:05.492Z,78.63
2023-01-21T12:34:38.547Z,78.49
2023-01-21T12:37:14.225Z,78.56
2023-01-21T12:39:43.254Z,78.45
2023-01-21T12:42:15.555Z,78.38
2023-01-21T12:44:47.890Z,78.52
2023-01-21T12:47:25.295Z,78.55
2023-01-21T12:50:19.996Z,78.70
2023-01-21T12:53:01.986Z,78.51
2023-01-21T12:55:43.559Z,78.36
2023-01-21T12:58:15.444Z,78.44
2023-01-21T13:00:47.245Z,78.36
2023-01-21T13:03:27.765Z,78.20
2023-01-21T13:06:00.878Z,78.51
2023-01-21T13:08:41.618Z,78.36
2023-01-21T13:11:18.334Z,78.45
2023-01-21T13:13:54.871Z,78.26
2023-01-21T13:16:25.993Z,78.53
2023-01-21T13:18:55.983Z,78.39
2023-01-21T13:21:34.687Z,78.49
2023-01-21T13:24:14.486Z,78.32
2023-01-21T13:26:50.064Z,78.72
2023-01-21T13:29:25.987Z,78.55
2023-01-21T13:32:10.517Z,78.59
2023-01-21T13:34:44.870Z,78.38
2023-01-21T13:37:22.995Z,78.87
2023-01-21T13:40:08.195Z,78.49
2023-01-21T13:42:44.007Z,78.67
2023-01-21T13:45:30.377Z,78.60
2023-01-21T13:48:16.659Z,78.66
2023-01-21T13:51:01.066Z,78.63
2023-01-21T13:53:47.193Z,78.56
2023-01-21T13:56:32.046Z,78.71
2023-01-21T13:59:05.817Z,78.64
2023-01-21T14:01:43.542Z,78.70
2023-01-21T14:04:18.212Z,78.63
2023-01-21T14:06:52.807Z,78.93
2023-01-21T14:09:27.337Z,78.99
2023-01-21T14:12:03.225Z,79.18
2023-01-21T14:15:02.899Z,78.82
2023-01-21T14:18:18.708Z,78.97
2023-01-21T14:20:57.190Z,78.64
2023-01-21T14:23:45.534Z,78.72
2023-01-21T14:26:30.643Z,78.87
2023-01-21T14:29:09.981Z,78.96
2023-01-21T14:31:43.193Z,78.85
2023-01-21T14:34:18.612Z,78.96
2023-01-21T14:36:55.791Z,79.27
2023-01-21T14:39:36.366Z,78.77
2023-01-21T14:42:10.151Z,78.90
2023-01-21T14:44:44.567Z,78.91
2023-01-21T14:47:40.294Z,79.20
2023-01-21T14:50:09.852Z,78.92
2023-01-21T14:52:43.424Z,78.96
2023-01-21T14:55:27.884Z,78.79
2023-01-21T14:57:57.505Z,79.10
2023-01-21T15:00:30.263Z,78.92
2023-01-21T15:03:14.483Z,79.23
2023-01-21T15:05:45.053Z,79.05
2023-01-21T15:08:23.440Z,79.22
2023-01-21T15:10:55.824Z,78.96
2023-01-21T15:13:33.954Z,78.91
2023-01-21T15:16:15.103Z,79.05
2023-01-21T15:18:50.309Z,78.76
2023-01-21T15:21:37.264Z,78.82
2023-01-21T15:24:26.684Z,79.23
2023-01-21T15:27:14.361Z,79.24
2023-01-21T15:29:44.220Z,79.26
2023-01-21T15:32:32.867Z,79.26
2023-01-21T15:35:13.620Z,79.06
2023-01-21T15:37:45.796Z,79.35
2023-01-21T15:40:26.371Z,79.46
2023-01-21T15:43:04.197Z,79.23
2023-01-21T15:45:42.279Z,79.55
2023-01-21T15:48:25.334Z,79.09
2023-01-21T15:51:02.663Z,79.34
2023-01-21T15:53:55.960Z,79.34
2023-01-21T15:56:37.977Z,79.48
2023-01-21T15:59:20.708Z,79.36
2023-01-21T16:02:12.782Z,79.18
2023-01-21T16:04:48.160Z,78.99
2023-01-21T16:07:25.035Z,79.42
2023-01-21T16:10:07.219Z,79.23
2023-01-21T16:12:46.791Z,79.39
2023-01-21T16:15:20.582Z,79.65
2023-01-21T16:18:06.896Z,79.43
2023-01-21T16:20:35.511Z,79.59
2023-01-21T16:23:07.045Z,79.43
2023-01-21T16:25:44.551Z,79.76
2023-01-21T16:28:12.604Z,79.77
2023-01-21T16:30:51.574Z,79.41
2023-01-21T16:33:20.114Z,79.51
2023-01-21T16:35:50.862Z,79.36
2023-01-21T16:38:20.445Z,79.28
2023-01-21T16:40:50.545Z,79.20
2023-01-21T16:43:24.600Z,79.48
2023-01-21T16:45:54.487Z,79.51
2023-01-21T16:48:25.160Z,79.21
2023-01-21T16:50:54.383Z,79.45
2023-01-21T16:53:24.328Z,79.32
2023-01-21T16:55:54.820Z,79.50
2023-01-21T16:58:29.040Z,79.75
2023-01-21T17:01:05.972Z,79.53
2023-01-21T17:03:34.675Z,79.77
2023-01-21T17:06:07.986Z,79.43
2023-01-21T17:08:36.444Z,79.48
2023-01-21T17:11:08.522Z,79.19
2023-01-21T17:13:40.687Z,79.47
2023-01-21T17:16:19.713Z,79.27
2023-01-21T17:18:53.865Z,79.64
2023-01-21T17:21:30.616Z,79.04
2023-01-21T17:24:03.259Z,79.27
2023-01-21T17:26:36.374Z,79.32
2023-01-21T17:29:17.202Z,79.01
2023-01-21T17:31:46.089Z,79.01
2023-01-21T17:34:22.411Z,79.00
2023-01-21T17:36:52.432Z,78.82
2023-01-21T17:40:05.760Z,79.04
2023-01-21T17:42:40.376Z,78.98
2023-01-21T17:45:19.771Z,79.31
2023-01-21T17:48:08.061Z,78.96
2023-01-21T17:50:44.037Z,79.07
2023-01-21T17:53:21.972Z,79.01
2023-01-21T17:55:59.360Z,78.61
2023-01-21T17:58:51.312Z,78.67
2023-01-21T18:01:21.425Z,78.91
2023-01-21T18:03:49.752Z,79.04
2023-01-21T18:06:22.547Z,78.90
2023-01-21T18:08:50.544Z,79.08
2023-01-21T18:11:20.012Z,79.22
2023-01-21T18:13:48.313Z,79.35
2023-01-21T18:16:16.611Z,79.07
2023-01-21T18:18:44.969Z,79.34
2023-01-21T18:21:21.196Z,78.86
2023-01-21T18:23:50.054Z,78.86
2023-01-21T18:26:28.118Z,78.77
2023-01-21T18:28:56.214Z,78.95
2023-01-21T18:31:25.437Z,78.88
2023-01-21T18:33:53.985Z,79.03
2023-01-21T18:36:23.734Z,78.91
2023-01-21T18:38:51.975Z,78.79
2023-01-21T18:41:20.188Z,79.05
2023-01-21T18:43:48.614Z,78.84
2023-01-21T18:46:19.028Z,78.70
2023-01-21T18:48:47.043Z,78.88
2023-01-21T18:51:15.129Z,78.67
2023-01-21T18:53:43.360Z,78.72
2023-01-21T18:56:13.810Z,79.00
2023-01-21T18:58:42.184Z,79.06
2023-01-21T19:01:21.790Z,79.26
2023-01-21T19:03:52.201Z,78.90
2023-01-21T19:06:20.535Z,79.12
2023-01-21T19:08:48.677Z,78.78
2023-01-21T19:11:17.457Z,78.97
2023-01-21T19:13:45.747Z,78.76
2023-01-21T19:16:17.493Z,78.85
2023-01-21T19:18:46.132Z,78.65
2023-01-21T19:21:14.082Z,78.99
2023-01-21T19:23:42.450Z,78.59
2023-01-21T19:26:13.492Z,79.07
2023-01-21T19:28:42.021Z,79.10
2023-01-21T19:31:10.274Z,78.92
2023-01-21T19:33:42.190Z,78.82
2023-01-21T19:36:15.750Z,79.15
2023-01-21T19:38:49.603Z,78.86
2023-01-21T19:41:17.694Z,78.93
2023-01-21T19:43:45.902Z,78.84
2023-01-21T19:46:14.174Z,78.89
2023-01-21T19:48:42.328Z,78.71
2023-01-21T19:51:10.419Z,78.65
2023-01-21T19:53:38.719Z,78.99
2023-01-21T19:56:12.168Z,78.77
2023-01-21T19:58:41.473Z,78.87
2023-01-21T20:01:10.800Z,79.00
2023-01-21T20:03:48.124Z,78.73
2023-01-21T20:06:23.606Z,78.56
2023-01-21T20:08:52.191Z,78.86
2023-01-21T20:11:21.431Z,78.92
2023-01-21T20:13:49.597Z,78.72
2023-01-21T20:16:20.207Z,79.10
2023-01-21T20:18:49.287Z,78.83
2023-01-21T20:21:17.313Z,78.79
2023-01-21T20:23:45.411Z,78.53
2023-01-21T20:26:20.719Z,78.95
2023-01-21T20:28:53.784Z,78.76
2023-01-21T20:31:22.046Z,79.19
2023-01-21T20:33:50.176Z,78.82
2023-01-21T20:36:20.961Z,79.02
2023-01-21T20:38:49.409Z,78.81
2023-01-21T20:41:17.428Z,79.01
2023-01-21T20:43:45.500Z,78.86
2023-01-21T20:46:17.526Z,78.92
2023-01-21T20:48:45.630Z,79.06
2023-01-21T20:51:13.786Z,78.82
2023-01-21T20:53:42.024Z,78.95
2023-01-21T20:56:22.862Z,78.47
2023-01-21T20:58:51.411Z,78.71
2023-01-21T21:01:22.923Z,78.92
2023-01-21T21:03:51.429Z,78.36
2023-01-21T21:06:21.976Z,78.33
2023-01-21T21:08:50.472Z,78.81
2023-01-21T21:11:19.197Z,78.48
2023-01-21T21:13:51.117Z,78.50
2023-01-21T21:16:21.768Z,78.34
2023-01-21T21:18:50.785Z,78.30
2023-01-21T21:21:21.687Z,77.86
2023-01-21T21:23:51.661Z,78.21
2023-01-21T21:26:22.447Z,78.00
2023-01-21T21:28:53.876Z,78.25
2023-01-21T21:31:22.882Z,78.59
2023-01-21T21:33:51.003Z,78.44
2023-01-21T21:36:21.030Z,78.69
2023-01-21T21:38:51.513Z,78.30
2023-01-21T21:41:39.866Z,78.60
2023-01-21T21:44:09.253Z,78.32
2023-01-21T21:46:56.883Z,78.12
2023-01-21T21:49:25.090Z,78.09
2023-01-21T21:51:53.323Z,78.19
2023-01-21T21:54:22.151Z,78.39
2023-01-21T21:56:50.033Z,78.66
2023-01-21T21:59:18.017Z,78.46
2023-01-21T22:01:45.958Z,78.41
2023-01-21T22:04:15.119Z,78.44
2023-01-21T22:06:43.125Z,78.41
2023-01-21T22:09:11.398Z,78.58
2023-01-21T22:11:39.355Z,78.36
2023-01-21T22:14:07.873Z,78.72
2023-01-21T22:16:35.940Z,78.70
2023-01-21T22:19:04.134Z,78.54
2023-01-21T22:21:33.657Z,78.77
2023-01-21T22:24:02.174Z,78.68
2023-01-21T22:26:30.384Z,78.72
2023-01-21T22:28:58.741Z,78.64
2023-01-21T22:31:28.484Z,78.58
2023-01-21T22:33:58.228Z,78.52
2023-01-21T22:36:29.276Z,78.44
2023-01-21T22:38:57.912Z,78.46
2023-01-21T22:41:26.793Z,78.64
2023-01-21T22:43:54.779Z,78.52
2023-01-21T22:46:24.597Z,78.86
2023-01-21T22:48:53.700Z,78.90
2023-01-21T22:51:22.320Z,78.38
2023-01-21T22:53:51.281Z,78.28
2023-01-21T22:56:23.405Z,78.41
2023-01-21T22:58:51.589Z,78.63
2023-01-21T23:01:24.461Z,78.61
2023-01-21T23:03:52.921Z,78.47
2023-01-21T23:06:20.940Z,78.67
2023-01-21T23:08:49.147Z,78.20
2023-01-21T23:11:18.809Z,78.55
2023-01-21T23:13:49.372Z,78.35
2023-01-21T23:16:19.299Z,77.92
2023-01-21T23:18:47.949Z,78.20
2023-01-21T23:21:18.216Z,78.43
2023-01-21T23:23:46.519Z,78.24
2023-01-21T23:26:15.452Z,78.28
2023-01-21T23:28:43.425Z,78.11
2023-01-21T23:31:14.118Z,78.26
2023-01-21T23:33:42.294Z,78.37
2023-01-21T23:36:12.623Z,78.37
2023-01-21T23:38:41.590Z,78.30
2023-01-21T23:41:11.425Z,78.06
2023-01-21T23:43:40.225Z,78.03
2023-01-21T23:46:11.014Z,78.28
2023-01-21T23:48:39.617Z,78.20
2023-01-21T23:51:11.355Z,77.93
2023-01-21T23:53:39.275Z,78.15
2023-01-21T23:56:10.440Z,77.85
2023-01-21T23:58:38.776Z,78.07
